Nearby METAR Reports

 

EGUW - Wattisham Raf, United Kingdom
Distance from station: SW 12mi, 19km
Updated: 19/10/2017 03:50
Fog, Overcast
Fog, Overcast
 Wind from S
Wind: S 6 mph , 9 km/h
Temperature: 14°C
Dew Point: 14°C
Humidity: 100%
Barometer: 1008 hPa
Summary: Fog
Clouds: Overcast
Visibility: 0 mile , 0 km
Cloud details: Overcast 30 m
2017/10/19 02:50 EGUW 190250Z AUTO 17005KT 0250 FG OVC001/// 14/14 Q1008
EGUL - Lakenheath Raf, United Kingdom
Distance from station: WNW 29mi, 47km
Updated: 19/10/2017 04:26
Mist, Overcast
Mist, Overcast
 Wind from SSE
Wind: SSE 8 mph , 13 km/h
Temperature: 15°C
Dew Point: 15°C
Humidity: 100%
Barometer: 1007.5 hPa
Summary: Mist
Clouds: Overcast
Visibility: 6 miles , 9 km
Cloud details: Mostly cloudy 183 m
Overcast 853 m
2017/10/19 03:26 EGUL 190326Z AUTO 16007KT 9000 BR BKN006 OVC028 15/15 A2975 RMK AO2 SLP078
 
EGUN - Mildenhall Raf, United Kingdom
Distance from station: WNW 32mi, 51km
Updated: 19/10/2017 04:06
Mist, Mostly cloudy
Mist, Mostly cloudy
 Wind from SSE
Wind: SSE 9 mph , 15 km/h
Temperature: 15°C
Dew Point: 15°C
Humidity: 100%
Barometer: 1007.8 hPa
Summary: Mist
Clouds: Mostly cloudy
Visibility: 5 miles , 8 km
Cloud details: Mostly cloudy 183 m
2017/10/19 03:06 EGUN 190306Z AUTO 16008KT 8000 BR BKN006 15/15 A2976 RMK AO2 BKN V SCT SLP081 $
EGSH - Norwich Wea Cntr, United Kingdom
Distance from station: N 32mi, 52km
Updated: 19/10/2017 04:20
Fog, Overcast
Fog, Overcast
 Wind from SSE
Wind: SSE 5 mph , 7 km/h
Temperature: 15°C
Dew Point: 15°C
Humidity: 100%
Barometer: 1008 hPa
Summary: Fog
Clouds: Overcast
Visibility: 0 mile , 0 km
Cloud details: Overcast 0 m
2017/10/19 03:20 EGSH 190320Z AUTO 16004KT 0350 FG OVC000/// 15/15 Q1008
 
EGYM - Marham Raf, United Kingdom
Distance from station: NW 39mi, 62km
Updated: 19/10/2017 03:50
Rain, Partly cloudy
Rain, Partly cloudy
 Wind from SSE
Wind: SSE 7 mph , 11 km/h
Temperature: 14°C
Dew Point: 14°C
Humidity: 100%
Barometer: 1008 hPa
Summary: Rain
Clouds: Partly cloudy
Visibility: 1 mile , 2 km
Cloud details: Mostly cloudy 91 m
Partly cloudy 2438 m
2017/10/19 02:50 EGYM 190250Z AUTO 15006KT 1800 RA BKN003/// SCT080/// 14/14 Q1008
EGSC - Cambridge, United Kingdom
Distance from station: W 43mi, 69km
Updated: 18/10/2017 17:50
NOT Current
Light rain, Overcast
Light rain, Overcast
 Wind from N
Wind: N 3 mph , 6 km/h
Temperature: 12°C
Dew Point: 11°C
Humidity: 94%
Barometer: 1010 hPa
Summary: Light rain
Clouds: Overcast
Visibility: 3 miles , 5 km
Cloud details: Overcast 61 m
2017/10/18 16:50 EGSC 181650Z 36003KT 5000 -RA OVC002 12/11 Q1010 RERA
 
EGSS - Stansted Airport, United Kingdom
Distance from station: WSW 47mi, 76km
Updated: 19/10/2017 04:20
Fog
Fog
 Wind from SSE
Wind: SSE 8 mph , 13 km/h
Temperature: 14°C
Dew Point: 14°C
Humidity: 100%
Barometer: 1008 hPa
Summary: Fog
Visibility: 0 mile , 0 km
2017/10/19 03:20 EGSS 190320Z AUTO 16007KT 0250 R22/0600 FG VV/// 14/14 Q1008
EGUO - Oakington, United Kingdom
Distance from station: W 47mi, 76km
Updated: 19/07/2017 11:50
NOT Current
Light drizzle, Overcast
Light drizzle, Overcast
 Wind from SE
Wind: SE 6 mph , 9 km/h
Temperature: 20°C
Dew Point: 18°C
Humidity: 88%
Barometer: 1004 hPa
Summary: Light Drizzle
Clouds: Overcast
Visibility: 3 miles , 5 km
Cloud details: Overcast 274 m
2017/07/19 10:50 EGUO 191050Z 13005KT 5000 -DZ OVC009 20/18 Q1004 GRN TEMPO 8000 HZ GRN
 
EGMC - Southend-On-Sea, United Kingdom
Distance from station: SSW 50mi, 80km
Updated: 19/10/2017 04:20
Fog, Mostly cloudy
Fog, Mostly cloudy
 Wind from E
Wind: E 5 mph , 7 km/h
Temperature: 13°C
Dew Point: 12°C
Humidity: 94%
Barometer: 1008 hPa
Summary: Fog
Clouds: Mostly cloudy
Visibility: 0 mile , 1 km
Cloud details: Few Clouds 30 m
Mostly cloudy 152 m
2017/10/19 03:20 EGMC 190320Z 08004KT 0500 R05/1400 R23/0325 FG FEW001 BKN005 13/12 Q1008